Saint Louis, MO

4:28 PM CDT on September 23, 2014 (GMT -0500)
Shaw/Tower Grove | Change Station
CLOSE
Current Station
Personal Weather Station
Location: St. Louis, MO
Elevation: 502 ft
Nearby Weather Stations

Elev 502 ft 38.61 °N, 90.25 °W | Updated 3 minutes ago

Clear
Clear
78.1 °F
Feels Like 79 °F
N
2.7
Wind Variable Wind from ESE
Gusts 3.6 mph

Today
High -- | Low -- °F
--% Chance of Precip.
Yesterday
High -- | Low -- °F
Precip. -- in
6:49 AM 6:56 PM
Waning Crescent, 0% visible
Pressure 30.23 in
Visibility 10.0 miles
Clouds Few 15000 ft
Mostly Cloudy 25000 ft
Heat Index 79 °F
Dew Point 51 °F
Humidity 39%
Rainfall 0.00 in
Snow Depth Not available.
UV 2 out of 12
Pollen 5.50 out of 12
Ozone Good
PM2.5 Good
Flu Activity Not available.
METAR KSTL 232051Z 12008KT 10SM FEW150 BKN250 24/10 A3024 RMK AO2 SLP237 T02390100 56024

More Conditions Fewer Conditions

Pressure 30.23 in
Visibility 10.0 miles
Clouds Few 15000 ft
Mostly Cloudy 25000 ft
Heat Index 79 °F
Dew Point 51 °F
Humidity 39%
Rainfall 0.00 in
Snow Depth Not available.
UV 2 out of 12
Pollen 5.50 out of 12
Ozone Good
PM2.5 Good
Flu Activity Not available.
METAR KSTL 232051Z 12008KT 10SM FEW150 BKN250 24/10 A3024 RMK AO2 SLP237 T02390100 56024

More Conditions Fewer Conditions

10-Day Weather Forecast

Almanac

Astronomy

Sep. 23, 2014 Rise Set
Actual Time 6:49 AM CDT 6:56 PM CDT
Civil Twilight 6:22 AM CDT 7:22 PM CDT
Nautical Twilight 5:51 AM CDT 7:53 PM CDT
Astronomical Twilight 5:20 AM CDT 8:24 PM CDT
Moon 6:13 AM CDT 6:35 PM CDT
Length of Visible Light 12h 59m
Length of Day
12h 06m
Tomorrow will be 2m 28s shorter.
Waning Crescent, 0% of the Moon is Illuminated
Today
Waning Crescent
Sep 24
New
Oct 1
First Quarter
Oct 8
Full
Oct 15
Last Quarter

Today's Extremes

State Highs State Lows

Community

WunderPhotos

Upload Photos

1,755,793 photos uploaded!

WunderBlogs® & News

By Dr. Jeff Masters
Director of Meteorology, Weather Underground
By Kari Strenfel
Meteorologist, Weather Underground
By Christopher C. Burt
Weather Historian, Weather Underground
September 23, 2014
September 23, 2014
September 23, 2014

Nearby

Air Quality

  Air Quality AQ Index Pollutant
Yesterday Good
OZONE
Yesterday Good
PM2.5
Current Good
OZONE
Current Good
PM2.5
Tuesday Good
PM2.5
Wednesday Good
PM2.5

Snow Depth

Station Depth Elevation
No new snow has been reported.

Earthquake Activity

City Distance Mag. Time & Date
No recent earthquake activity has been reported nearby.
Minimum magnitude displayed is 2.5.

Coastal Water Temperatures

Place Temperature
No Stations Reporting

Nearby Weather Stations